Details From OAKB - Kabul Intl
To UTST - TERMEZ
Flight Number -
Tags generated
Created
Modified
Stats Distance 188 nm / 348 km
Max Altitude 24,600 ft / 7,498 m
Waypoints 5
Social Downloads 0
Likes 0
Share VATSIM

Download

Looking for another format? Having issues loading an existing format? Contact us
Advertisement - Login to hide

Notes

Basic altitude profile: - Ascent Rate: 2500ft/min - Ascent Speed: 250kts - Cruise Altitude: 35000ft - Cruise Speed: 420kts - Descent Rate: 1500ft/min - Descent Speed: 250kts Options: - Use NATs: yes - Use PACOTS: yes - Use low airways: yes - Use high airways: yes

Route

OAKB DOSHI A454 AMDAR UTST

ID Type Via Altitude Latitude Longitude Leg Dist Tot Dist Heading (true) Name
O OAKB APT - 0 ft / 0 m 34.56587˚ 69.21229˚ - 0 nm - Kabul Intl
DOSHI FIX - 24,600 ft / 7,498 m 35.60000˚ 68.44167˚ 72 nm 72 nm 329° / 328° -
KHOLM FIX A454 (AWY-LO) 18,400 ft / 5,608 m 36.71667˚ 67.68333˚ 76 nm 149 nm 331° / 331° -
AMDAR FIX A454 (AWY-LO) 18,400 ft / 5,608 m 37.20833˚ 67.34333˚ 33 nm 182 nm 331° / 331° -
O UTST APT - 0 ft / 0 m 37.28667˚ 67.30917˚ 4 nm 187 nm 341° / 341° TERMEZ

Altitude Profile

Advertisement - Login to hide

Weather


0- 5 10 15 20 25 30 35+ Temperature / ° C

Clouds and Precipitation
Forecast for 2017-12-18 00:00 UTC. Updated 10 minutes ago

Ground ~20,000 ft ~40,000 ft Winds

OAKB

Details ICAO OAKB (KBL)
Name Kabul Intl
Region Afghanistan
Timezone Asia/Kabul (UTC+4.5)
Stats Elevation 5,877 ft / 1,791 m (AMSL)
Location 34.565875° 69.212289°
Runways 1
Magnetic Variation 3.165° E

METAR

OAKB 172050Z 31003KT 1600 FU BKN100 M01/M05 Q1030 NOSIG RMK A3044 YLO YLO

Decode

TAF

Not found

Departure Runways

ID Width Length Bearing (true) Bearing (mag) Surface Threshold Offset Overrun Length
11 164 ft / 50 m 11,483 ft / 3,500 m 107.39° 104.23° Asphalt 0 ft / 0 m 144 ft / 44 m
29 164 ft / 50 m 11,483 ft / 3,500 m 287.41° 284.25° Asphalt 0 ft / 0 m 190 ft / 58 m

UTST

Details ICAO UTST (TMJ)
Name TERMEZ
Region Tajikistan, Turkmenistan and Uzbekistan
Timezone Asia/Samarkand (UTC+5.0)
Stats Elevation 1,027 ft / 313 m (AMSL)
Location 37.286667° 67.309167°
Runways 1
Magnetic Variation 4.145° E

METAR

UTST 172100Z VRB02KT 8000 NSC 06/M01 Q1026 R88/CLRD70 NOSIG

Decode

TAF

Not found

Destination Runways

ID Width Length Bearing (true) Bearing (mag) Surface Threshold Offset Overrun Length
07 138 ft / 42 m 9,510 ft / 2,899 m 75.17° 71.02° Concrete 0 ft / 0 m 164 ft / 50 m
25 138 ft / 42 m 9,510 ft / 2,899 m 255.19° 251.04° Concrete 0 ft / 0 m 164 ft / 50 m

Approach Navaids

Runway Type Ident Frequency Range Bearing (true) Bearing (mag) Slope Elevation
25 Localiser INO 110.30 MHz 18 nm / 33 km 254.33° 250.18° - 1,027 ft / 313 m (AMSL)
25 Glidescope INO 110.30 MHz 10 nm / 19 km 255.18° 251.03° 2.40° 1,027 ft / 313 m (AMSL)

Popular Alternatives